createdAt,value
2019-05-23T00:05:25.626Z,99.90
2019-05-23T00:08:07.821Z,99.90
2019-05-23T00:10:52.982Z,99.90
2019-05-23T00:13:35.872Z,99.90
2019-05-23T00:16:18.504Z,99.90
2019-05-23T00:19:00.291Z,99.90
2019-05-23T00:21:42.366Z,99.90
2019-05-23T00:24:24.107Z,99.90
2019-05-23T00:27:07.097Z,99.90
2019-05-23T00:29:49.228Z,99.90
2019-05-23T00:32:34.257Z,99.90
2019-05-23T00:35:15.240Z,99.90
2019-05-23T00:37:56.724Z,99.90
2019-05-23T00:40:37.143Z,99.90
2019-05-23T00:43:18.005Z,99.90
2019-05-23T00:45:58.364Z,99.90
2019-05-23T00:48:39.083Z,99.90
2019-05-23T00:51:21.490Z,99.90
2019-05-23T00:54:03.337Z,99.90
2019-05-23T00:56:44.341Z,99.90
2019-05-23T00:59:27.893Z,99.90
2019-05-23T01:02:09.489Z,99.90
2019-05-23T01:04:50.861Z,99.90
2019-05-23T01:07:31.772Z,99.90
2019-05-23T01:10:12.324Z,99.90
2019-05-23T01:12:53.457Z,99.90
2019-05-23T01:15:34.917Z,99.90
2019-05-23T01:18:15.497Z,99.90
2019-05-23T01:20:58.420Z,99.90
2019-05-23T01:23:40.580Z,99.90
2019-05-23T01:26:21.095Z,99.90
2019-05-23T01:29:01.769Z,99.90
2019-05-23T01:31:44.366Z,99.90
2019-05-23T01:34:26.388Z,99.90
2019-05-23T01:37:08.339Z,99.90
2019-05-23T01:39:49.800Z,99.90
2019-05-23T01:42:30.568Z,99.90
2019-05-23T01:45:12.072Z,99.90
2019-05-23T01:47:53.381Z,99.90
2019-05-23T01:50:34.015Z,99.90
2019-05-23T01:53:15.639Z,99.90
2019-05-23T01:55:56.201Z,99.90
2019-05-23T01:58:37.036Z,99.90
2019-05-23T02:01:17.606Z,99.90
2019-05-23T02:03:58.739Z,99.90
2019-05-23T02:06:39.411Z,99.90
2019-05-23T02:09:20.265Z,99.90
2019-05-23T02:12:01.816Z,99.90
2019-05-23T02:14:44.344Z,99.90
2019-05-23T02:17:25.268Z,99.90
2019-05-23T02:20:06.629Z,99.90
2019-05-23T02:22:47.818Z,99.90
2019-05-23T02:25:29.149Z,99.90
2019-05-23T02:28:10.445Z,99.90
2019-05-23T02:30:51.355Z,99.90
2019-05-23T02:33:32.580Z,99.90
2019-05-23T02:36:13.361Z,99.90
2019-05-23T02:39:13.220Z,99.90
2019-05-23T02:41:55.268Z,99.90
2019-05-23T02:44:35.453Z,99.90
2019-05-23T02:47:35.159Z,99.90
2019-05-23T02:50:17.320Z,99.90
2019-05-23T02:52:58.301Z,99.90
2019-05-23T02:55:38.825Z,99.90
2019-05-23T02:58:19.537Z,99.90
2019-05-23T03:01:01.089Z,99.90
2019-05-23T03:03:41.774Z,99.90
2019-05-23T03:06:22.323Z,99.90
2019-05-23T03:09:03.517Z,99.90
2019-05-23T03:11:44.600Z,99.90
2019-05-23T03:14:26.754Z,99.90
2019-05-23T03:17:07.894Z,99.90
2019-05-23T03:20:16.343Z,99.90
2019-05-23T03:23:24.787Z,99.90
2019-05-23T03:26:05.262Z,99.90
2019-05-23T03:28:46.173Z,99.90
2019-05-23T03:31:32.001Z,99.90
2019-05-23T03:34:12.303Z,99.90
2019-05-23T03:36:53.197Z,99.90
2019-05-23T03:39:33.774Z,99.90
2019-05-23T03:42:15.028Z,99.90
2019-05-23T03:44:55.925Z,99.90
2019-05-23T03:47:37.461Z,99.90
2019-05-23T03:50:19.039Z,99.90
2019-05-23T03:52:59.449Z,99.90
2019-05-23T03:55:42.006Z,99.90
2019-05-23T03:58:22.381Z,99.90
2019-05-23T04:01:04.632Z,99.90
2019-05-23T04:03:45.057Z,99.90
2019-05-23T04:06:26.542Z,99.90
2019-05-23T04:09:07.792Z,99.90
2019-05-23T04:11:48.648Z,99.90
2019-05-23T04:14:29.333Z,99.90
2019-05-23T04:17:10.412Z,99.90
2019-05-23T04:19:51.117Z,99.90
2019-05-23T04:22:32.098Z,99.90
2019-05-23T04:25:12.891Z,99.90
2019-05-23T04:27:54.480Z,99.90
2019-05-23T04:30:35.501Z,99.90
2019-05-23T04:33:16.805Z,99.90
2019-05-23T04:35:57.687Z,99.90
2019-05-23T04:38:39.121Z,99.90
2019-05-23T04:41:19.740Z,99.90
2019-05-23T04:44:00.311Z,99.90
2019-05-23T04:46:41.245Z,99.90
2019-05-23T04:49:21.750Z,99.90
2019-05-23T04:52:02.895Z,99.90
2019-05-23T04:54:43.962Z,99.90
2019-05-23T04:57:26.897Z,99.90
2019-05-23T05:00:09.188Z,99.90
2019-05-23T05:02:49.627Z,99.90
2019-05-23T05:05:30.639Z,99.90
2019-05-23T05:08:11.062Z,99.90
2019-05-23T05:10:52.629Z,99.90
2019-05-23T05:13:33.588Z,99.90
2019-05-23T05:16:14.531Z,99.90
2019-05-23T05:18:55.711Z,99.90
2019-05-23T05:21:36.792Z,99.90
2019-05-23T05:24:17.543Z,99.90
2019-05-23T05:26:57.844Z,99.90
2019-05-23T05:29:38.830Z,99.90
2019-05-23T05:32:20.217Z,99.90
2019-05-23T05:35:01.291Z,99.90
2019-05-23T05:37:42.092Z,99.90
2019-05-23T05:40:22.677Z,99.90
2019-05-23T05:43:04.069Z,99.90
2019-05-23T05:45:45.653Z,99.90
2019-05-23T05:48:26.381Z,99.90
2019-05-23T05:51:07.464Z,99.90
2019-05-23T05:53:48.375Z,99.90
2019-05-23T05:56:28.608Z,99.90
2019-05-23T05:59:08.982Z,99.90
2019-05-23T06:01:49.653Z,99.90
2019-05-23T06:04:30.541Z,99.90
2019-05-23T06:07:15.841Z,99.90
2019-05-23T06:09:57.680Z,99.90
2019-05-23T06:12:38.525Z,99.90
2019-05-23T06:15:19.673Z,99.90
2019-05-23T06:18:00.589Z,99.90
2019-05-23T06:20:42.780Z,99.90
2019-05-23T06:23:23.238Z,99.90
2019-05-23T06:26:04.312Z,99.90
2019-05-23T06:28:44.990Z,99.90
2019-05-23T06:31:25.172Z,99.90
2019-05-23T06:34:05.852Z,99.90
2019-05-23T06:36:46.920Z,99.90
2019-05-23T06:39:27.979Z,99.90
2019-05-23T06:42:09.079Z,99.90
2019-05-23T06:44:50.751Z,99.90
2019-05-23T06:47:32.185Z,99.90
2019-05-23T06:50:14.145Z,99.90
2019-05-23T06:52:58.160Z,99.90
2019-05-23T06:55:38.500Z,99.90
2019-05-23T06:58:19.374Z,99.90
2019-05-23T07:01:00.538Z,99.90
2019-05-23T07:03:43.376Z,99.90
2019-05-23T07:06:23.082Z,99.90
2019-05-23T07:09:04.278Z,99.90
2019-05-23T07:11:44.656Z,99.90
2019-05-23T07:14:25.737Z,99.90
2019-05-23T07:17:06.804Z,99.90
2019-05-23T07:19:47.264Z,99.90
2019-05-23T07:22:27.800Z,99.90
2019-05-23T07:25:08.522Z,99.90
2019-05-23T07:27:49.455Z,99.90
2019-05-23T07:30:30.349Z,99.90
2019-05-23T07:33:11.241Z,99.90
2019-05-23T07:35:51.955Z,99.90
2019-05-23T07:38:32.499Z,99.90
2019-05-23T07:41:13.968Z,99.90
2019-05-23T07:43:54.620Z,99.90
2019-05-23T07:46:35.275Z,99.90
2019-05-23T07:49:16.021Z,99.90
2019-05-23T07:51:56.650Z,99.90
2019-05-23T07:54:41.704Z,99.90
2019-05-23T07:57:23.288Z,99.90
2019-05-23T08:00:05.886Z,99.90
2019-05-23T08:02:46.881Z,99.90
2019-05-23T08:05:27.824Z,99.90
2019-05-23T08:08:08.365Z,99.90
2019-05-23T08:10:49.104Z,99.90
2019-05-23T08:13:30.480Z,99.90
2019-05-23T08:16:11.318Z,99.90
2019-05-23T08:18:51.678Z,99.90
2019-05-23T08:21:32.781Z,99.90
2019-05-23T08:24:14.489Z,99.90
2019-05-23T08:26:55.541Z,99.90
2019-05-23T08:29:36.663Z,99.90
2019-05-23T08:32:16.892Z,99.90
2019-05-23T08:34:57.368Z,99.90
2019-05-23T08:37:38.080Z,99.90
2019-05-23T08:40:18.602Z,99.90
2019-05-23T08:42:59.456Z,99.90
2019-05-23T08:45:39.949Z,99.90
2019-05-23T08:48:20.589Z,99.90
2019-05-23T08:51:01.247Z,99.90
2019-05-23T08:53:41.687Z,99.90
2019-05-23T08:56:22.484Z,99.90
2019-05-23T08:59:03.658Z,99.90
2019-05-23T09:01:45.337Z,99.90
2019-05-23T09:04:26.122Z,99.90
2019-05-23T09:07:06.553Z,99.90
2019-05-23T09:09:47.312Z,99.90
2019-05-23T09:12:28.332Z,99.90
2019-05-23T09:15:10.326Z,99.90
2019-05-23T09:17:53.874Z,99.90
2019-05-23T09:20:34.161Z,99.90
2019-05-23T09:23:15.088Z,99.90
2019-05-23T09:25:56.058Z,99.90
2019-05-23T09:28:36.849Z,99.90
2019-05-23T09:31:17.553Z,97.70
2019-05-23T09:33:58.448Z,98.10
2019-05-23T09:36:39.444Z,99.90
2019-05-23T09:39:21.588Z,99.60
2019-05-23T09:42:02.322Z,99.00
2019-05-23T09:44:43.233Z,98.10
2019-05-23T09:47:23.748Z,98.20
2019-05-23T09:50:05.521Z,99.10
2019-05-23T09:52:46.241Z,98.00
2019-05-23T09:55:28.152Z,98.00
2019-05-23T09:58:08.932Z,97.10
2019-05-23T10:00:49.393Z,99.30
2019-05-23T10:03:30.122Z,96.30
2019-05-23T10:06:10.947Z,97.20
2019-05-23T10:08:51.580Z,98.30
2019-05-23T10:11:32.448Z,96.60
2019-05-23T10:14:14.583Z,96.10
2019-05-23T10:16:55.958Z,95.30
2019-05-23T10:19:36.796Z,96.10
2019-05-23T10:22:17.522Z,94.10
2019-05-23T10:24:58.374Z,94.80
2019-05-23T10:27:38.658Z,92.70
2019-05-23T10:30:19.756Z,92.10
2019-05-23T10:33:00.496Z,90.00
2019-05-23T10:35:58.540Z,91.90
2019-05-23T10:38:24.041Z,93.50
2019-05-23T10:41:04.881Z,92.50
2019-05-23T10:43:45.044Z,88.50
2019-05-23T10:46:25.770Z,88.40
2019-05-23T10:49:06.359Z,85.80
2019-05-23T10:51:47.072Z,86.30
2019-05-23T10:54:28.099Z,81.30
2019-05-23T10:57:09.194Z,82.00
2019-05-23T10:59:50.027Z,84.90
2019-05-23T11:02:30.692Z,81.20
2019-05-23T11:05:13.889Z,81.00
2019-05-23T11:07:54.391Z,77.70
2019-05-23T11:10:35.163Z,74.70
2019-05-23T11:13:16.418Z,75.20
2019-05-23T11:15:57.179Z,79.70
2019-05-23T11:18:38.284Z,74.70
2019-05-23T11:21:19.205Z,78.00
2019-05-23T11:24:00.134Z,75.90
2019-05-23T11:26:41.136Z,80.60
2019-05-23T11:29:21.984Z,77.00
2019-05-23T11:32:03.881Z,82.50
2019-05-23T11:34:45.369Z,75.50
2019-05-23T11:37:25.934Z,78.30
2019-05-23T11:40:06.632Z,78.30
2019-05-23T11:42:47.125Z,75.30
2019-05-23T11:45:29.365Z,75.10
2019-05-23T11:48:10.376Z,74.70
2019-05-23T11:50:51.212Z,71.80
2019-05-23T11:53:31.921Z,72.00
2019-05-23T11:56:13.170Z,69.10
2019-05-23T11:58:53.635Z,75.50
2019-05-23T12:01:38.749Z,70.80
2019-05-23T12:04:21.000Z,70.30
2019-05-23T12:07:03.493Z,73.10
2019-05-23T12:09:42.232Z,72.00
2019-05-23T12:18:33.247Z,71.80
2019-05-23T12:27:07.227Z,61.30
2019-05-23T12:29:48.188Z,70.70
2019-05-23T12:32:29.113Z,63.60
2019-05-23T12:35:11.807Z,63.70
2019-05-23T12:37:52.462Z,66.00
2019-05-23T12:40:33.035Z,60.90
2019-05-23T12:43:13.584Z,64.20
2019-05-23T12:45:54.307Z,60.90
2019-05-23T12:48:39.352Z,60.30
2019-05-23T12:51:38.741Z,62.20
2019-05-23T12:54:20.334Z,60.70
2019-05-23T12:57:01.000Z,65.10
2019-05-23T12:59:41.789Z,66.50
2019-05-23T13:02:23.984Z,59.70
2019-05-23T13:05:05.373Z,66.60
2019-05-23T13:07:45.578Z,67.30
2019-05-23T13:10:26.292Z,65.10
2019-05-23T13:13:07.493Z,58.90
2019-05-23T13:15:47.789Z,62.20
2019-05-23T13:18:28.513Z,65.40
2019-05-23T13:21:09.671Z,59.90
2019-05-23T13:23:50.880Z,64.20
2019-05-23T13:26:31.615Z,63.30
2019-05-23T13:29:12.681Z,60.60
2019-05-23T13:31:53.517Z,63.20
2019-05-23T13:34:33.896Z,61.20
2019-05-23T13:37:17.002Z,57.70
2019-05-23T13:39:57.040Z,62.20
2019-05-23T13:42:37.914Z,61.40
2019-05-23T13:45:18.501Z,64.20
2019-05-23T13:47:59.035Z,63.20
2019-05-23T13:50:40.082Z,59.80
2019-05-23T13:53:20.956Z,58.70
2019-05-23T13:56:01.547Z,59.70
2019-05-23T13:58:42.506Z,60.90
2019-05-23T14:01:23.219Z,64.30
2019-05-23T14:04:03.831Z,65.70
2019-05-23T14:06:44.824Z,64.10
2019-05-23T14:09:25.428Z,64.80
2019-05-23T14:12:20.574Z,60.00
2019-05-23T14:14:48.478Z,59.20
2019-05-23T14:17:33.344Z,58.00
2019-05-23T14:20:13.892Z,61.60
2019-05-23T14:22:59.077Z,61.50
2019-05-23T14:25:39.954Z,62.90
2019-05-23T14:28:20.499Z,60.40
2019-05-23T14:34:09.554Z,60.60
2019-05-23T14:36:51.821Z,61.00
2019-05-23T14:39:33.988Z,60.70
2019-05-23T14:42:16.324Z,61.00
2019-05-23T14:44:56.796Z,60.50
2019-05-23T14:47:41.792Z,64.20
2019-05-23T14:53:28.333Z,58.80
2019-05-23T14:56:09.388Z,62.00
2019-05-23T14:58:50.012Z,60.30
2019-05-23T15:01:32.323Z,61.50
2019-05-23T15:04:13.444Z,60.00
2019-05-23T15:06:54.177Z,58.90
2019-05-23T15:09:34.668Z,59.60
2019-05-23T15:12:15.188Z,61.30
2019-05-23T15:14:56.134Z,62.60
2019-05-23T15:17:36.379Z,63.60
2019-05-23T15:20:17.170Z,67.40
2019-05-23T15:22:59.976Z,68.00
2019-05-23T15:25:40.935Z,64.70
2019-05-23T15:28:21.252Z,63.40
2019-05-23T15:31:02.191Z,63.30
2019-05-23T15:33:42.566Z,64.60
2019-05-23T15:36:22.976Z,65.10
2019-05-23T15:39:09.597Z,66.80
2019-05-23T15:41:45.927Z,66.40
2019-05-23T15:44:29.705Z,64.20
2019-05-23T15:47:09.826Z,64.60
2019-05-23T15:49:52.410Z,61.40
2019-05-23T15:52:35.033Z,64.70
2019-05-23T15:55:36.033Z,65.60
2019-05-23T15:58:22.120Z,61.60
2019-05-23T16:01:02.273Z,63.60
2019-05-23T16:06:51.716Z,65.80
2019-05-23T16:09:32.328Z,65.60
2019-05-23T16:12:13.209Z,67.10
2019-05-23T16:14:53.976Z,64.80
2019-05-23T16:17:34.922Z,67.30
2019-05-23T16:20:16.000Z,67.30
2019-05-23T16:22:56.853Z,69.70
2019-05-23T16:25:37.825Z,69.90
2019-05-23T16:28:18.493Z,68.20
2019-05-23T16:30:59.205Z,65.20
2019-05-23T16:33:39.953Z,67.20
2019-05-23T16:36:20.496Z,67.30
2019-05-23T16:39:00.996Z,63.90
2019-05-23T16:41:41.404Z,67.30
2019-05-23T16:44:21.850Z,66.60
2019-05-23T16:47:02.573Z,69.10
2019-05-23T16:49:43.152Z,65.30
2019-05-23T16:52:24.123Z,65.90
2019-05-23T16:55:06.750Z,66.20
2019-05-23T16:57:49.334Z,67.30
2019-05-23T17:03:38.920Z,68.40
2019-05-23T17:10:06.654Z,71.50
2019-05-23T17:12:31.796Z,71.00
2019-05-23T17:15:14.572Z,71.70
2019-05-23T17:20:54.120Z,73.30
2019-05-23T17:23:55.117Z,71.00
2019-05-23T17:29:47.661Z,72.30
2019-05-23T17:32:29.751Z,75.90
2019-05-23T17:35:10.834Z,76.70
2019-05-23T17:37:51.396Z,76.30
2019-05-23T17:40:32.208Z,74.30
2019-05-23T17:43:13.280Z,76.70
2019-05-23T17:45:53.749Z,78.40
2019-05-23T17:48:34.332Z,76.60
2019-05-23T17:51:15.401Z,79.80
2019-05-23T17:53:56.269Z,82.20
2019-05-23T17:56:36.618Z,82.70
2019-05-23T17:59:16.763Z,81.70
2019-05-23T18:01:57.487Z,81.30
2019-05-23T18:04:37.983Z,80.80
2019-05-23T18:07:18.826Z,81.30
2019-05-23T18:09:59.180Z,81.60
2019-05-23T18:12:39.881Z,79.90
2019-05-23T18:15:21.581Z,81.30
2019-05-23T18:18:01.957Z,80.50
2019-05-23T18:20:43.193Z,80.40
2019-05-23T18:23:24.495Z,81.40
2019-05-23T18:26:05.164Z,78.80
2019-05-23T18:28:46.257Z,79.90
2019-05-23T18:31:31.753Z,82.00
2019-05-23T18:34:13.982Z,91.60
2019-05-23T18:36:55.574Z,92.20
2019-05-23T18:39:36.238Z,93.00
2019-05-23T18:42:17.320Z,93.90
2019-05-23T18:44:58.341Z,94.60
2019-05-23T18:47:40.833Z,97.40
2019-05-23T18:50:22.548Z,97.80
2019-05-23T18:53:04.116Z,99.60
2019-05-23T18:55:44.625Z,99.90
2019-05-23T18:58:25.156Z,99.90
2019-05-23T19:01:10.473Z,99.90
2019-05-23T19:03:51.492Z,99.90
2019-05-23T19:06:32.332Z,99.90
2019-05-23T19:09:13.974Z,99.90
2019-05-23T19:11:55.293Z,99.90
2019-05-23T19:14:36.116Z,99.90
2019-05-23T19:17:17.684Z,99.90
2019-05-23T19:19:58.678Z,99.90
2019-05-23T19:22:39.671Z,99.90
2019-05-23T19:25:20.541Z,99.90
2019-05-23T19:28:01.255Z,99.90
2019-05-23T19:30:42.204Z,99.90
2019-05-23T19:33:23.595Z,99.90
2019-05-23T19:36:05.765Z,99.90
2019-05-23T19:38:46.649Z,99.90
2019-05-23T19:41:36.822Z,99.90
2019-05-23T19:44:10.391Z,99.90
2019-05-23T19:46:51.320Z,99.90
2019-05-23T19:49:31.917Z,99.90
2019-05-23T19:52:12.985Z,99.90
2019-05-23T19:54:53.196Z,99.90
2019-05-23T19:57:34.232Z,99.90
2019-05-23T20:00:17.064Z,99.90
2019-05-23T20:02:59.017Z,99.90
2019-05-23T20:05:41.443Z,99.90
2019-05-23T20:08:22.348Z,99.90
2019-05-23T20:11:03.329Z,99.90
2019-05-23T20:13:44.203Z,99.90
2019-05-23T20:16:24.705Z,99.90
2019-05-23T20:19:05.574Z,99.90
2019-05-23T20:21:46.625Z,99.90
2019-05-23T20:24:27.366Z,99.90
2019-05-23T20:27:07.784Z,99.90
2019-05-23T20:29:48.408Z,99.90
2019-05-23T20:32:28.872Z,99.90
2019-05-23T20:35:10.217Z,99.90
2019-05-23T20:37:51.110Z,99.90
2019-05-23T20:40:31.853Z,99.90
2019-05-23T20:43:13.072Z,99.90
2019-05-23T20:45:53.809Z,99.90
2019-05-23T20:48:34.577Z,99.90
2019-05-23T20:51:16.092Z,99.90
2019-05-23T20:53:57.081Z,99.90
2019-05-23T20:56:38.147Z,99.90
2019-05-23T20:59:18.908Z,99.90
2019-05-23T21:01:59.517Z,99.90
2019-05-23T21:04:39.889Z,99.90
2019-05-23T21:07:20.112Z,99.90
2019-05-23T21:10:00.922Z,99.90
2019-05-23T21:12:41.566Z,99.90
2019-05-23T21:15:22.276Z,99.90
2019-05-23T21:18:02.968Z,99.90
2019-05-23T21:20:43.671Z,99.90
2019-05-23T21:23:24.608Z,99.90
2019-05-23T21:26:06.269Z,99.90
2019-05-23T21:28:47.388Z,99.90
2019-05-23T21:31:27.920Z,99.90
2019-05-23T21:34:08.568Z,99.90
2019-05-23T21:36:49.333Z,99.90
2019-05-23T21:39:30.719Z,99.90
2019-05-23T21:42:11.831Z,99.90
2019-05-23T21:44:52.765Z,99.90
2019-05-23T21:47:33.452Z,99.90
2019-05-23T21:50:14.396Z,99.90
2019-05-23T21:52:54.966Z,99.90
2019-05-23T21:55:35.574Z,99.90
2019-05-23T21:58:16.727Z,99.90
2019-05-23T22:01:17.029Z,99.90
2019-05-23T22:04:03.156Z,99.90
2019-05-23T22:09:49.142Z,99.90
2019-05-23T22:12:37.140Z,99.90
2019-05-23T22:15:44.420Z,99.90
2019-05-23T22:21:40.883Z,99.90
2019-05-23T22:24:28.884Z,99.90
2019-05-23T22:27:09.986Z,99.90
2019-05-23T22:29:50.704Z,99.90
2019-05-23T22:32:33.215Z,99.90
2019-05-23T22:35:15.585Z,99.90
2019-05-23T22:37:56.026Z,99.90
2019-05-23T22:40:38.544Z,99.90
2019-05-23T22:43:21.331Z,99.90
2019-05-23T22:46:01.609Z,99.90
2019-05-23T22:48:42.039Z,99.90
2019-05-23T22:51:22.740Z,99.90
2019-05-23T22:54:04.156Z,99.90
2019-05-23T22:56:44.740Z,99.90
2019-05-23T22:59:25.225Z,99.90
2019-05-23T23:02:07.860Z,99.90
2019-05-23T23:04:48.741Z,99.90
2019-05-23T23:07:29.871Z,99.90
2019-05-23T23:10:10.226Z,99.90
2019-05-23T23:12:50.972Z,99.90
2019-05-23T23:15:32.766Z,99.90
2019-05-23T23:18:13.686Z,99.90
2019-05-23T23:20:54.232Z,99.90
2019-05-23T23:23:35.084Z,99.90
2019-05-23T23:26:15.878Z,99.90
2019-05-23T23:28:57.103Z,99.90
2019-05-23T23:31:37.696Z,99.90
2019-05-23T23:34:18.392Z,99.90
2019-05-23T23:36:59.272Z,99.90
2019-05-23T23:39:39.689Z,99.90
2019-05-23T23:42:20.464Z,99.90
2019-05-23T23:45:20.694Z,99.90
2019-05-23T23:48:20.916Z,99.90
2019-05-23T23:54:26.033Z,99.90
2019-05-23T23:57:26.518Z,99.90
